Westville, Canada
Current Conditions -  °F | °C
As of 5:00 AM on Thursday 23 Oct 2014 (Local Time) from CYYG Reporting Station
Broken Clouds Broken Clouds  
Wind Chill: 44°   Ceiling: 17000
Heat Index: 48°   Visibility: 15mi
Dew Point: 45°   Wind: 10mph
Humidity: 87%   Direction: 50°NE
Pressure: 30.23"   Gusts: NA
Location:  45.55°N, 62.72°W
Report Text: CYYG 230800Z 05009KT 15SM FEW050 SCT100 BKN170 09/07 A3023 RMK SC2AC2AC3 SLP239
Loading
Personal Weather Stations






























Interactive Weather Map
Tropical Storm Tracking
New forecast layout! Learn more

10-Day Weather Forecast

Advertisements
Track Severe Weather on mobile